sensor_id;sensor_type;location;lat;lon;timestamp;P1;durP1;ratioP1;P2;durP2;ratioP2
69890;SDS011;57170;43.964;21.262;2022-12-01T00:00:59;3.17;;;2.00;;
69890;SDS011;57170;43.964;21.262;2022-12-01T00:03:28;2.80;;;1.60;;
69890;SDS011;57170;43.964;21.262;2022-12-01T00:06:02;3.75;;;1.65;;
69890;SDS011;57170;43.964;21.262;2022-12-01T00:08:28;3.40;;;1.92;;
69890;SDS011;57170;43.964;21.262;2022-12-01T00:10:54;3.22;;;1.88;;
69890;SDS011;57170;43.964;21.262;2022-12-01T00:13:20;3.88;;;2.17;;
69890;SDS011;57170;43.964;21.262;2022-12-01T00:15:46;3.53;;;1.90;;
69890;SDS011;57170;43.964;21.262;2022-12-01T00:18:12;4.15;;;2.55;;
69890;SDS011;57170;43.964;21.262;2022-12-01T00:20:39;3.40;;;1.83;;
69890;SDS011;57170;43.964;21.262;2022-12-01T00:23:05;3.90;;;2.10;;
69890;SDS011;57170;43.964;21.262;2022-12-01T00:25:31;5.15;;;2.85;;
69890;SDS011;57170;43.964;21.262;2022-12-01T00:27:57;3.88;;;2.35;;
69890;SDS011;57170;43.964;21.262;2022-12-01T00:30:23;3.33;;;2.33;;
69890;SDS011;57170;43.964;21.262;2022-12-01T00:32:49;4.32;;;2.25;;
69890;SDS011;57170;43.964;21.262;2022-12-01T00:35:15;2.90;;;1.80;;
69890;SDS011;57170;43.964;21.262;2022-12-01T00:37:41;3.67;;;2.08;;
69890;SDS011;57170;43.964;21.262;2022-12-01T00:40:08;2.85;;;1.50;;
69890;SDS011;57170;43.964;21.262;2022-12-01T00:42:35;3.28;;;2.00;;
69890;SDS011;57170;43.964;21.262;2022-12-01T00:45:01;3.70;;;2.05;;
69890;SDS011;57170;43.964;21.262;2022-12-01T00:47:27;4.38;;;1.98;;
69890;SDS011;57170;43.964;21.262;2022-12-01T00:49:53;2.60;;;1.80;;
69890;SDS011;57170;43.964;21.262;2022-12-01T00:52:19;3.22;;;2.10;;
69890;SDS011;57170;43.964;21.262;2022-12-01T00:54:45;3.75;;;1.92;;
69890;SDS011;57170;43.964;21.262;2022-12-01T00:57:12;2.38;;;1.55;;
69890;SDS011;57170;43.964;21.262;2022-12-01T00:59:38;3.85;;;2.40;;
69890;SDS011;57170;43.964;21.262;2022-12-01T01:02:04;3.17;;;2.03;;
69890;SDS011;57170;43.964;21.262;2022-12-01T01:04:31;2.67;;;1.50;;
69890;SDS011;57170;43.964;21.262;2022-12-01T01:06:58;2.70;;;1.48;;
69890;SDS011;57170;43.964;21.262;2022-12-01T01:09:24;2.47;;;1.70;;
69890;SDS011;57170;43.964;21.262;2022-12-01T01:11:50;3.30;;;2.03;;
69890;SDS011;57170;43.964;21.262;2022-12-01T01:14:17;3.33;;;1.60;;
69890;SDS011;57170;43.964;21.262;2022-12-01T01:16:43;3.00;;;1.67;;
69890;SDS011;57170;43.964;21.262;2022-12-01T01:19:09;1.67;;;1.23;;
69890;SDS011;57170;43.964;21.262;2022-12-01T01:21:35;2.80;;;1.48;;
69890;SDS011;57170;43.964;21.262;2022-12-01T01:24:01;2.78;;;1.20;;
69890;SDS011;57170;43.964;21.262;2022-12-01T01:26:29;2.22;;;1.60;;
69890;SDS011;57170;43.964;21.262;2022-12-01T01:28:56;2.67;;;1.60;;
69890;SDS011;57170;43.964;21.262;2022-12-01T01:31:23;3.78;;;1.70;;
69890;SDS011;57170;43.964;21.262;2022-12-01T01:33:49;2.67;;;1.50;;
69890;SDS011;57170;43.964;21.262;2022-12-01T01:36:16;4.70;;;1.58;;
69890;SDS011;57170;43.964;21.262;2022-12-01T01:38:42;2.45;;;1.50;;
69890;SDS011;57170;43.964;21.262;2022-12-01T01:41:09;3.45;;;1.63;;
69890;SDS011;57170;43.964;21.262;2022-12-01T01:43:40;2.85;;;1.55;;
69890;SDS011;57170;43.964;21.262;2022-12-01T01:46:07;3.33;;;1.60;;
69890;SDS011;57170;43.964;21.262;2022-12-01T01:48:33;2.95;;;1.80;;
69890;SDS011;57170;43.964;21.262;2022-12-01T01:51:00;3.20;;;1.40;;
69890;SDS011;57170;43.964;21.262;2022-12-01T01:53:27;2.55;;;1.40;;
69890;SDS011;57170;43.964;21.262;2022-12-01T01:55:53;2.50;;;1.60;;
69890;SDS011;57170;43.964;21.262;2022-12-01T01:58:19;3.20;;;1.42;;
69890;SDS011;57170;43.964;21.262;2022-12-01T02:00:45;2.53;;;1.38;;
69890;SDS011;57170;43.964;21.262;2022-12-01T02:03:13;2.08;;;1.38;;
69890;SDS011;57170;43.964;21.262;2022-12-01T02:05:40;2.47;;;1.30;;
69890;SDS011;57170;43.964;21.262;2022-12-01T02:08:09;3.05;;;1.63;;
69890;SDS011;57170;43.964;21.262;2022-12-01T02:10:48;5.05;;;2.20;;
69890;SDS011;57170;43.964;21.262;2022-12-01T02:13:26;1.88;;;1.40;;
69890;SDS011;57170;43.964;21.262;2022-12-01T02:18:33;3.50;;;1.35;;
69890;SDS011;57170;43.964;21.262;2022-12-01T02:21:17;1.85;;;1.17;;
69890;SDS011;57170;43.964;21.262;2022-12-01T02:23:56;3.00;;;1.75;;
69890;SDS011;57170;43.964;21.262;2022-12-01T02:26:31;2.58;;;1.40;;
69890;SDS011;57170;43.964;21.262;2022-12-01T02:31:26;1.38;;;1.02;;
69890;SDS011;57170;43.964;21.262;2022-12-01T02:39:36;1.95;;;1.27;;
69890;SDS011;57170;43.964;21.262;2022-12-01T02:41:42;2.22;;;1.30;;
69890;SDS011;57170;43.964;21.262;2022-12-01T02:44:23;2.97;;;1.15;;
69890;SDS011;57170;43.964;21.262;2022-12-01T02:46:54;1.98;;;1.13;;
69890;SDS011;57170;43.964;21.262;2022-12-01T02:49:23;2.40;;;1.35;;
69890;SDS011;57170;43.964;21.262;2022-12-01T02:51:50;2.72;;;1.20;;
69890;SDS011;57170;43.964;21.262;2022-12-01T02:54:17;2.20;;;1.20;;
69890;SDS011;57170;43.964;21.262;2022-12-01T02:56:44;2.53;;;1.40;;
69890;SDS011;57170;43.964;21.262;2022-12-01T02:59:11;2.45;;;1.45;;
69890;SDS011;57170;43.964;21.262;2022-12-01T03:06:50;2.03;;;1.25;;
69890;SDS011;57170;43.964;21.262;2022-12-01T03:17:16;1.98;;;1.17;;
69890;SDS011;57170;43.964;21.262;2022-12-01T03:19:46;1.83;;;1.20;;
69890;SDS011;57170;43.964;21.262;2022-12-01T03:22:15;2.97;;;1.48;;
69890;SDS011;57170;43.964;21.262;2022-12-01T03:24:43;3.10;;;1.50;;
69890;SDS011;57170;43.964;21.262;2022-12-01T03:27:11;2.50;;;1.50;;
69890;SDS011;57170;43.964;21.262;2022-12-01T03:29:45;2.08;;;1.30;;
69890;SDS011;57170;43.964;21.262;2022-12-01T03:32:14;2.95;;;1.60;;
69890;SDS011;57170;43.964;21.262;2022-12-01T03:34:51;4.13;;;1.70;;
69890;SDS011;57170;43.964;21.262;2022-12-01T03:37:28;2.75;;;1.45;;
69890;SDS011;57170;43.964;21.262;2022-12-01T03:39:56;2.17;;;1.55;;
69890;SDS011;57170;43.964;21.262;2022-12-01T03:45:07;2.70;;;1.30;;
69890;SDS011;57170;43.964;21.262;2022-12-01T03:47:34;2.72;;;1.60;;
69890;SDS011;57170;43.964;21.262;2022-12-01T03:50:02;2.80;;;1.52;;
69890;SDS011;57170;43.964;21.262;2022-12-01T03:52:34;2.67;;;1.70;;
69890;SDS011;57170;43.964;21.262;2022-12-01T03:55:23;2.88;;;1.73;;
69890;SDS011;57170;43.964;21.262;2022-12-01T03:57:53;1.77;;;1.30;;
69890;SDS011;57170;43.964;21.262;2022-12-01T04:00:21;3.28;;;1.45;;
69890;SDS011;57170;43.964;21.262;2022-12-01T04:02:47;3.00;;;1.88;;
69890;SDS011;57170;43.964;21.262;2022-12-01T04:05:18;3.38;;;1.73;;
69890;SDS011;57170;43.964;21.262;2022-12-01T04:07:44;3.30;;;1.95;;
69890;SDS011;57170;43.964;21.262;2022-12-01T04:10:10;3.85;;;2.28;;
69890;SDS011;57170;43.964;21.262;2022-12-01T04:12:36;3.42;;;1.92;;
69890;SDS011;57170;43.964;21.262;2022-12-01T04:15:06;4.57;;;2.28;;
69890;SDS011;57170;43.964;21.262;2022-12-01T04:17:34;3.13;;;1.77;;
69890;SDS011;57170;43.964;21.262;2022-12-01T04:20:00;2.90;;;2.08;;
69890;SDS011;57170;43.964;21.262;2022-12-01T04:22:27;6.15;;;1.88;;
69890;SDS011;57170;43.964;21.262;2022-12-01T04:24:53;4.35;;;2.22;;
69890;SDS011;57170;43.964;21.262;2022-12-01T04:27:19;3.28;;;1.92;;
69890;SDS011;57170;43.964;21.262;2022-12-01T04:29:46;3.17;;;2.00;;
69890;SDS011;57170;43.964;21.262;2022-12-01T04:32:12;3.30;;;1.75;;
69890;SDS011;57170;43.964;21.262;2022-12-01T04:34:38;3.15;;;1.70;;
69890;SDS011;57170;43.964;21.262;2022-12-01T04:37:04;4.95;;;1.95;;
69890;SDS011;57170;43.964;21.262;2022-12-01T04:39:31;3.30;;;1.98;;
69890;SDS011;57170;43.964;21.262;2022-12-01T04:41:58;3.20;;;1.95;;
69890;SDS011;57170;43.964;21.262;2022-12-01T04:44:24;3.70;;;2.08;;
69890;SDS011;57170;43.964;21.262;2022-12-01T04:46:50;4.65;;;2.53;;
69890;SDS011;57170;43.964;21.262;2022-12-01T04:49:17;3.17;;;2.10;;
69890;SDS011;57170;43.964;21.262;2022-12-01T04:51:43;3.17;;;1.90;;
69890;SDS011;57170;43.964;21.262;2022-12-01T04:54:09;3.47;;;2.03;;
69890;SDS011;57170;43.964;21.262;2022-12-01T04:56:36;3.67;;;2.20;;
69890;SDS011;57170;43.964;21.262;2022-12-01T04:59:02;3.05;;;1.80;;
69890;SDS011;57170;43.964;21.262;2022-12-01T05:01:28;3.20;;;2.08;;
69890;SDS011;57170;43.964;21.262;2022-12-01T05:03:54;3.35;;;2.25;;
69890;SDS011;57170;43.964;21.262;2022-12-01T05:06:21;4.00;;;2.30;;
69890;SDS011;57170;43.964;21.262;2022-12-01T05:08:48;2.55;;;1.67;;
69890;SDS011;57170;43.964;21.262;2022-12-01T05:11:15;7.68;;;2.30;;
69890;SDS011;57170;43.964;21.262;2022-12-01T05:13:42;3.58;;;1.88;;
69890;SDS011;57170;43.964;21.262;2022-12-01T05:16:09;4.22;;;2.58;;
69890;SDS011;57170;43.964;21.262;2022-12-01T05:18:36;3.97;;;2.00;;
69890;SDS011;57170;43.964;21.262;2022-12-01T05:21:02;3.97;;;2.38;;
69890;SDS011;57170;43.964;21.262;2022-12-01T05:23:29;4.90;;;3.35;;
69890;SDS011;57170;43.964;21.262;2022-12-01T05:25:56;3.47;;;2.25;;
69890;SDS011;57170;43.964;21.262;2022-12-01T05:28:23;6.35;;;3.08;;
69890;SDS011;57170;43.964;21.262;2022-12-01T05:30:49;3.50;;;2.35;;
69890;SDS011;57170;43.964;21.262;2022-12-01T05:33:15;4.95;;;2.45;;
69890;SDS011;57170;43.964;21.262;2022-12-01T05:35:42;4.05;;;2.30;;
69890;SDS011;57170;43.964;21.262;2022-12-01T05:38:08;4.78;;;2.40;;
69890;SDS011;57170;43.964;21.262;2022-12-01T05:40:35;3.95;;;2.58;;
69890;SDS011;57170;43.964;21.262;2022-12-01T05:43:01;4.07;;;2.58;;
69890;SDS011;57170;43.964;21.262;2022-12-01T05:45:27;3.88;;;2.13;;
69890;SDS011;57170;43.964;21.262;2022-12-01T05:47:54;3.47;;;2.45;;
69890;SDS011;57170;43.964;21.262;2022-12-01T05:50:21;4.43;;;2.35;;
69890;SDS011;57170;43.964;21.262;2022-12-01T05:52:47;3.63;;;2.15;;
69890;SDS011;57170;43.964;21.262;2022-12-01T05:55:13;3.67;;;2.45;;
69890;SDS011;57170;43.964;21.262;2022-12-01T05:57:39;6.13;;;2.15;;
69890;SDS011;57170;43.964;21.262;2022-12-01T06:00:06;4.32;;;2.17;;
69890;SDS011;57170;43.964;21.262;2022-12-01T06:02:32;4.25;;;2.28;;
69890;SDS011;57170;43.964;21.262;2022-12-01T06:04:58;6.75;;;4.63;;
69890;SDS011;57170;43.964;21.262;2022-12-01T06:07:24;5.03;;;3.20;;
69890;SDS011;57170;43.964;21.262;2022-12-01T06:09:50;5.68;;;3.92;;
69890;SDS011;57170;43.964;21.262;2022-12-01T06:12:17;5.43;;;3.28;;
69890;SDS011;57170;43.964;21.262;2022-12-01T06:14:43;7.68;;;3.80;;
69890;SDS011;57170;43.964;21.262;2022-12-01T06:17:09;4.80;;;2.95;;
69890;SDS011;57170;43.964;21.262;2022-12-01T06:19:35;3.85;;;2.42;;
69890;SDS011;57170;43.964;21.262;2022-12-01T06:22:02;7.38;;;4.60;;
69890;SDS011;57170;43.964;21.262;2022-12-01T06:24:28;4.88;;;3.22;;
69890;SDS011;57170;43.964;21.262;2022-12-01T06:26:54;4.50;;;2.97;;
69890;SDS011;57170;43.964;21.262;2022-12-01T06:29:20;4.80;;;3.05;;
69890;SDS011;57170;43.964;21.262;2022-12-01T06:31:46;8.00;;;5.35;;
69890;SDS011;57170;43.964;21.262;2022-12-01T06:34:12;11.32;;;6.45;;
69890;SDS011;57170;43.964;21.262;2022-12-01T06:36:38;9.07;;;5.90;;
69890;SDS011;57170;43.964;21.262;2022-12-01T06:39:05;8.95;;;6.05;;
69890;SDS011;57170;43.964;21.262;2022-12-01T06:41:34;6.80;;;5.15;;
69890;SDS011;57170;43.964;21.262;2022-12-01T06:44:00;5.60;;;3.28;;
69890;SDS011;57170;43.964;21.262;2022-12-01T06:46:26;5.88;;;3.92;;
69890;SDS011;57170;43.964;21.262;2022-12-01T06:48:52;6.68;;;4.47;;
69890;SDS011;57170;43.964;21.262;2022-12-01T06:51:18;8.02;;;5.28;;
69890;SDS011;57170;43.964;21.262;2022-12-01T06:53:45;10.30;;;7.13;;
69890;SDS011;57170;43.964;21.262;2022-12-01T06:56:11;17.90;;;10.90;;
69890;SDS011;57170;43.964;21.262;2022-12-01T06:58:37;14.50;;;9.18;;
69890;SDS011;57170;43.964;21.262;2022-12-01T07:01:10;76.03;;;50.03;;
69890;SDS011;57170;43.964;21.262;2022-12-01T07:03:37;13.27;;;7.72;;
69890;SDS011;57170;43.964;21.262;2022-12-01T07:06:03;14.20;;;8.80;;
69890;SDS011;57170;43.964;21.262;2022-12-01T07:08:30;9.32;;;6.10;;
69890;SDS011;57170;43.964;21.262;2022-12-01T07:13:26;6.53;;;4.18;;
69890;SDS011;57170;43.964;21.262;2022-12-01T07:15:52;8.18;;;5.05;;
69890;SDS011;57170;43.964;21.262;2022-12-01T07:18:19;8.15;;;5.10;;
69890;SDS011;57170;43.964;21.262;2022-12-01T07:20:45;8.63;;;6.32;;
69890;SDS011;57170;43.964;21.262;2022-12-01T07:23:11;39.78;;;29.25;;
69890;SDS011;57170;43.964;21.262;2022-12-01T07:25:37;7.95;;;4.78;;
69890;SDS011;57170;43.964;21.262;2022-12-01T07:28:03;8.43;;;6.13;;
69890;SDS011;57170;43.964;21.262;2022-12-01T07:30:29;7.18;;;5.18;;
69890;SDS011;57170;43.964;21.262;2022-12-01T07:32:55;7.07;;;4.63;;
69890;SDS011;57170;43.964;21.262;2022-12-01T07:35:21;6.97;;;4.90;;
69890;SDS011;57170;43.964;21.262;2022-12-01T07:37:52;6.57;;;4.97;;
69890;SDS011;57170;43.964;21.262;2022-12-01T07:40:18;6.15;;;3.90;;
69890;SDS011;57170;43.964;21.262;2022-12-01T07:42:44;5.75;;;4.60;;
69890;SDS011;57170;43.964;21.262;2022-12-01T07:45:10;5.63;;;4.32;;
69890;SDS011;57170;43.964;21.262;2022-12-01T07:47:37;5.95;;;4.40;;
69890;SDS011;57170;43.964;21.262;2022-12-01T07:50:03;5.57;;;4.30;;
69890;SDS011;57170;43.964;21.262;2022-12-01T07:52:29;6.13;;;4.43;;
69890;SDS011;57170;43.964;21.262;2022-12-01T07:54:55;8.07;;;4.82;;
69890;SDS011;57170;43.964;21.262;2022-12-01T07:57:21;6.35;;;4.50;;
69890;SDS011;57170;43.964;21.262;2022-12-01T07:59:48;8.50;;;5.55;;
69890;SDS011;57170;43.964;21.262;2022-12-01T08:02:14;6.03;;;4.22;;
69890;SDS011;57170;43.964;21.262;2022-12-01T08:04:41;6.15;;;4.95;;
69890;SDS011;57170;43.964;21.262;2022-12-01T08:07:07;7.63;;;5.50;;
69890;SDS011;57170;43.964;21.262;2022-12-01T08:09:33;7.45;;;4.75;;
69890;SDS011;57170;43.964;21.262;2022-12-01T08:11:59;8.27;;;5.30;;
69890;SDS011;57170;43.964;21.262;2022-12-01T08:14:26;7.38;;;5.95;;
69890;SDS011;57170;43.964;21.262;2022-12-01T08:16:52;7.35;;;5.90;;
69890;SDS011;57170;43.964;21.262;2022-12-01T08:19:18;5.22;;;4.50;;
69890;SDS011;57170;43.964;21.262;2022-12-01T08:21:44;5.38;;;4.22;;
69890;SDS011;57170;43.964;21.262;2022-12-01T08:24:10;5.57;;;5.07;;
69890;SDS011;57170;43.964;21.262;2022-12-01T08:26:36;9.18;;;6.68;;
69890;SDS011;57170;43.964;21.262;2022-12-01T08:29:02;6.32;;;5.32;;
69890;SDS011;57170;43.964;21.262;2022-12-01T08:31:29;6.05;;;5.30;;
69890;SDS011;57170;43.964;21.262;2022-12-01T08:33:56;6.47;;;5.55;;
69890;SDS011;57170;43.964;21.262;2022-12-01T08:36:22;6.85;;;5.70;;
69890;SDS011;57170;43.964;21.262;2022-12-01T08:38:50;5.25;;;4.25;;
69890;SDS011;57170;43.964;21.262;2022-12-01T08:41:17;7.85;;;5.07;;
69890;SDS011;57170;43.964;21.262;2022-12-01T08:43:43;7.28;;;5.82;;
69890;SDS011;57170;43.964;21.262;2022-12-01T08:46:10;6.47;;;5.18;;
69890;SDS011;57170;43.964;21.262;2022-12-01T08:48:37;6.25;;;5.65;;
69890;SDS011;57170;43.964;21.262;2022-12-01T08:51:13;6.05;;;4.50;;
69890;SDS011;57170;43.964;21.262;2022-12-01T08:53:41;5.10;;;4.60;;
69890;SDS011;57170;43.964;21.262;2022-12-01T08:56:27;5.32;;;4.20;;
69890;SDS011;57170;43.964;21.262;2022-12-01T08:58:54;6.05;;;3.67;;
69890;SDS011;57170;43.964;21.262;2022-12-01T09:01:20;5.88;;;3.08;;
69890;SDS011;57170;43.964;21.262;2022-12-01T09:03:46;4.63;;;2.92;;
69890;SDS011;57170;43.964;21.262;2022-12-01T09:06:13;6.97;;;4.00;;
69890;SDS011;57170;43.964;21.262;2022-12-01T09:08:40;6.32;;;4.80;;
69890;SDS011;57170;43.964;21.262;2022-12-01T09:11:07;5.50;;;4.75;;
69890;SDS011;57170;43.964;21.262;2022-12-01T09:13:34;4.10;;;3.13;;
69890;SDS011;57170;43.964;21.262;2022-12-01T09:16:09;5.47;;;4.30;;
69890;SDS011;57170;43.964;21.262;2022-12-01T09:18:35;7.75;;;5.00;;
69890;SDS011;57170;43.964;21.262;2022-12-01T09:21:09;6.80;;;6.10;;
69890;SDS011;57170;43.964;21.262;2022-12-01T09:23:35;8.93;;;7.47;;
69890;SDS011;57170;43.964;21.262;2022-12-01T09:26:01;7.55;;;6.53;;
69890;SDS011;57170;43.964;21.262;2022-12-01T09:28:27;5.30;;;4.63;;
69890;SDS011;57170;43.964;21.262;2022-12-01T09:30:53;5.07;;;4.20;;
69890;SDS011;57170;43.964;21.262;2022-12-01T09:33:20;7.00;;;6.00;;
69890;SDS011;57170;43.964;21.262;2022-12-01T09:35:46;5.78;;;4.22;;
69890;SDS011;57170;43.964;21.262;2022-12-01T09:38:12;5.97;;;5.22;;
69890;SDS011;57170;43.964;21.262;2022-12-01T09:40:39;5.35;;;4.72;;
69890;SDS011;57170;43.964;21.262;2022-12-01T09:43:10;6.03;;;5.43;;
69890;SDS011;57170;43.964;21.262;2022-12-01T09:45:38;7.90;;;5.78;;
69890;SDS011;57170;43.964;21.262;2022-12-01T09:48:08;10.77;;;4.20;;
69890;SDS011;57170;43.964;21.262;2022-12-01T09:50:38;8.02;;;5.50;;
69890;SDS011;57170;43.964;21.262;2022-12-01T09:53:07;5.88;;;4.53;;
69890;SDS011;57170;43.964;21.262;2022-12-01T09:55:34;5.63;;;4.47;;
69890;SDS011;57170;43.964;21.262;2022-12-01T09:58:01;4.88;;;4.22;;
69890;SDS011;57170;43.964;21.262;2022-12-01T10:00:29;4.95;;;3.72;;
69890;SDS011;57170;43.964;21.262;2022-12-01T10:05:25;6.13;;;4.18;;
69890;SDS011;57170;43.964;21.262;2022-12-01T10:10:23;6.25;;;4.05;;
69890;SDS011;57170;43.964;21.262;2022-12-01T10:12:51;6.68;;;2.88;;
69890;SDS011;57170;43.964;21.262;2022-12-01T10:20:18;5.22;;;4.47;;
69890;SDS011;57170;43.964;21.262;2022-12-01T10:25:22;5.30;;;3.28;;
69890;SDS011;57170;43.964;21.262;2022-12-01T10:30:15;6.22;;;4.03;;
69890;SDS011;57170;43.964;21.262;2022-12-01T10:32:53;4.88;;;3.30;;
69890;SDS011;57170;43.964;21.262;2022-12-01T10:35:20;4.82;;;3.10;;
69890;SDS011;57170;43.964;21.262;2022-12-01T10:37:46;6.03;;;3.90;;
69890;SDS011;57170;43.964;21.262;2022-12-01T10:40:15;5.13;;;3.35;;
69890;SDS011;57170;43.964;21.262;2022-12-01T10:42:42;5.47;;;3.63;;
69890;SDS011;57170;43.964;21.262;2022-12-01T10:45:20;6.28;;;4.28;;
69890;SDS011;57170;43.964;21.262;2022-12-01T10:50:32;5.63;;;4.10;;
69890;SDS011;57170;43.964;21.262;2022-12-01T10:52:58;4.53;;;3.45;;
69890;SDS011;57170;43.964;21.262;2022-12-01T10:55:26;5.78;;;4.32;;
69890;SDS011;57170;43.964;21.262;2022-12-01T10:57:53;6.47;;;4.50;;
69890;SDS011;57170;43.964;21.262;2022-12-01T11:00:23;12.23;;;4.20;;
69890;SDS011;57170;43.964;21.262;2022-12-01T11:02:50;5.35;;;3.05;;
69890;SDS011;57170;43.964;21.262;2022-12-01T11:05:29;4.65;;;3.38;;
69890;SDS011;57170;43.964;21.262;2022-12-01T11:07:58;5.13;;;3.65;;
69890;SDS011;57170;43.964;21.262;2022-12-01T11:10:25;4.78;;;3.60;;
69890;SDS011;57170;43.964;21.262;2022-12-01T11:12:58;5.25;;;3.30;;
69890;SDS011;57170;43.964;21.262;2022-12-01T11:15:49;6.28;;;3.45;;
69890;SDS011;57170;43.964;21.262;2022-12-01T11:18:23;5.30;;;3.70;;
69890;SDS011;57170;43.964;21.262;2022-12-01T11:21:09;5.68;;;3.85;;
69890;SDS011;57170;43.964;21.262;2022-12-01T11:23:37;5.55;;;4.32;;
69890;SDS011;57170;43.964;21.262;2022-12-01T11:28:40;7.35;;;5.00;;
69890;SDS011;57170;43.964;21.262;2022-12-01T11:31:08;5.90;;;4.10;;
69890;SDS011;57170;43.964;21.262;2022-12-01T11:34:13;6.55;;;4.00;;
69890;SDS011;57170;43.964;21.262;2022-12-01T11:38:57;6.07;;;4.80;;
69890;SDS011;57170;43.964;21.262;2022-12-01T11:41:28;7.47;;;5.20;;
69890;SDS011;57170;43.964;21.262;2022-12-01T11:43:56;10.00;;;5.10;;
69890;SDS011;57170;43.964;21.262;2022-12-01T11:46:42;8.25;;;4.70;;
69890;SDS011;57170;43.964;21.262;2022-12-01T11:49:18;6.18;;;4.82;;
69890;SDS011;57170;43.964;21.262;2022-12-01T11:51:45;8.38;;;5.07;;
69890;SDS011;57170;43.964;21.262;2022-12-01T11:54:13;5.40;;;3.60;;
69890;SDS011;57170;43.964;21.262;2022-12-01T11:56:40;6.15;;;3.83;;
69890;SDS011;57170;43.964;21.262;2022-12-01T12:14:39;6.70;;;4.28;;
69890;SDS011;57170;43.964;21.262;2022-12-01T12:22:26;7.55;;;4.90;;
69890;SDS011;57170;43.964;21.262;2022-12-01T12:29:57;11.13;;;5.35;;
69890;SDS011;57170;43.964;21.262;2022-12-01T12:48:23;3.97;;;2.55;;
69890;SDS011;57170;43.964;21.262;2022-12-01T12:50:59;5.63;;;3.40;;
69890;SDS011;57170;43.964;21.262;2022-12-01T12:53:33;4.47;;;3.08;;
69890;SDS011;57170;43.964;21.262;2022-12-01T12:56:04;5.07;;;2.85;;
69890;SDS011;57170;43.964;21.262;2022-12-01T12:58:33;15.57;;;8.55;;
69890;SDS011;57170;43.964;21.262;2022-12-01T13:01:03;9.50;;;6.68;;
69890;SDS011;57170;43.964;21.262;2022-12-01T13:06:02;6.50;;;4.18;;
69890;SDS011;57170;43.964;21.262;2022-12-01T13:08:33;5.75;;;3.42;;
69890;SDS011;57170;43.964;21.262;2022-12-01T13:11:03;5.47;;;3.30;;
69890;SDS011;57170;43.964;21.262;2022-12-01T13:13:43;5.18;;;3.40;;
69890;SDS011;57170;43.964;21.262;2022-12-01T13:16:12;5.75;;;3.40;;
69890;SDS011;57170;43.964;21.262;2022-12-01T13:21:15;5.28;;;3.50;;
69890;SDS011;57170;43.964;21.262;2022-12-01T13:23:42;4.93;;;3.33;;
69890;SDS011;57170;43.964;21.262;2022-12-01T13:26:09;6.03;;;3.90;;
69890;SDS011;57170;43.964;21.262;2022-12-01T13:28:38;5.00;;;3.33;;
69890;SDS011;57170;43.964;21.262;2022-12-01T13:31:06;4.47;;;3.03;;
69890;SDS011;57170;43.964;21.262;2022-12-01T13:33:33;4.03;;;3.10;;
69890;SDS011;57170;43.964;21.262;2022-12-01T13:36:00;5.05;;;3.20;;
69890;SDS011;57170;43.964;21.262;2022-12-01T13:38:27;6.82;;;3.60;;
69890;SDS011;57170;43.964;21.262;2022-12-01T13:41:11;4.82;;;2.92;;
69890;SDS011;57170;43.964;21.262;2022-12-01T13:46:31;6.70;;;3.25;;
69890;SDS011;57170;43.964;21.262;2022-12-01T13:48:59;5.60;;;4.00;;
69890;SDS011;57170;43.964;21.262;2022-12-01T13:51:26;8.10;;;6.28;;
69890;SDS011;57170;43.964;21.262;2022-12-01T13:56:24;10.57;;;8.15;;
69890;SDS011;57170;43.964;21.262;2022-12-01T13:58:52;6.53;;;4.50;;
69890;SDS011;57170;43.964;21.262;2022-12-01T14:08:59;18.80;;;13.48;;
69890;SDS011;57170;43.964;21.262;2022-12-01T14:11:27;13.32;;;8.18;;
69890;SDS011;57170;43.964;21.262;2022-12-01T14:16:20;10.30;;;9.20;;
69890;SDS011;57170;43.964;21.262;2022-12-01T14:18:54;20.67;;;11.85;;
69890;SDS011;57170;43.964;21.262;2022-12-01T14:21:42;20.30;;;18.10;;
69890;SDS011;57170;43.964;21.262;2022-12-01T14:24:14;31.67;;;23.17;;
69890;SDS011;57170;43.964;21.262;2022-12-01T14:26:43;10.25;;;9.10;;
69890;SDS011;57170;43.964;21.262;2022-12-01T14:29:22;15.38;;;13.38;;
69890;SDS011;57170;43.964;21.262;2022-12-01T14:34:19;12.93;;;11.65;;
69890;SDS011;57170;43.964;21.262;2022-12-01T14:36:49;7.53;;;6.10;;
69890;SDS011;57170;43.964;21.262;2022-12-01T14:41:49;6.32;;;5.05;;
69890;SDS011;57170;43.964;21.262;2022-12-01T14:47:26;11.90;;;8.25;;
69890;SDS011;57170;43.964;21.262;2022-12-01T14:49:33;9.55;;;6.32;;
69890;SDS011;57170;43.964;21.262;2022-12-01T14:52:03;9.88;;;6.10;;
69890;SDS011;57170;43.964;21.262;2022-12-01T14:54:31;6.93;;;5.13;;
69890;SDS011;57170;43.964;21.262;2022-12-01T14:56:59;15.98;;;5.32;;
69890;SDS011;57170;43.964;21.262;2022-12-01T14:59:26;7.88;;;5.05;;
69890;SDS011;57170;43.964;21.262;2022-12-01T15:01:54;9.60;;;6.45;;
69890;SDS011;57170;43.964;21.262;2022-12-01T15:04:21;9.18;;;5.50;;
69890;SDS011;57170;43.964;21.262;2022-12-01T15:06:51;5.53;;;3.75;;
69890;SDS011;57170;43.964;21.262;2022-12-01T15:09:19;4.70;;;3.08;;
69890;SDS011;57170;43.964;21.262;2022-12-01T15:11:55;4.95;;;3.55;;
69890;SDS011;57170;43.964;21.262;2022-12-01T15:14:38;4.45;;;3.38;;
69890;SDS011;57170;43.964;21.262;2022-12-01T15:17:25;4.43;;;3.00;;
69890;SDS011;57170;43.964;21.262;2022-12-01T15:19:51;6.00;;;3.17;;
69890;SDS011;57170;43.964;21.262;2022-12-01T15:22:18;12.20;;;9.30;;
69890;SDS011;57170;43.964;21.262;2022-12-01T15:24:44;17.77;;;13.93;;
69890;SDS011;57170;43.964;21.262;2022-12-01T15:30:08;19.00;;;14.13;;
69890;SDS011;57170;43.964;21.262;2022-12-01T15:32:37;22.95;;;15.73;;
69890;SDS011;57170;43.964;21.262;2022-12-01T15:35:09;22.90;;;16.08;;
69890;SDS011;57170;43.964;21.262;2022-12-01T15:37:41;17.35;;;12.90;;
69890;SDS011;57170;43.964;21.262;2022-12-01T15:40:08;14.57;;;10.77;;
69890;SDS011;57170;43.964;21.262;2022-12-01T15:42:37;13.02;;;9.18;;
69890;SDS011;57170;43.964;21.262;2022-12-01T15:45:14;12.80;;;7.35;;
69890;SDS011;57170;43.964;21.262;2022-12-01T15:50:29;6.82;;;4.72;;
69890;SDS011;57170;43.964;21.262;2022-12-01T15:52:57;52.35;;;28.33;;
69890;SDS011;57170;43.964;21.262;2022-12-01T15:55:30;12.73;;;7.57;;
69890;SDS011;57170;43.964;21.262;2022-12-01T15:57:57;32.97;;;16.75;;
69890;SDS011;57170;43.964;21.262;2022-12-01T16:00:24;14.63;;;9.70;;
69890;SDS011;57170;43.964;21.262;2022-12-01T16:02:54;12.60;;;7.15;;
69890;SDS011;57170;43.964;21.262;2022-12-01T16:05:23;150.20;;;73.20;;
69890;SDS011;57170;43.964;21.262;2022-12-01T16:07:50;175.43;;;87.78;;
69890;SDS011;57170;43.964;21.262;2022-12-01T16:10:27;129.20;;;65.43;;
69890;SDS011;57170;43.964;21.262;2022-12-01T16:13:30;125.63;;;70.05;;
69890;SDS011;57170;43.964;21.262;2022-12-01T16:15:42;78.07;;;47.33;;
69890;SDS011;57170;43.964;21.262;2022-12-01T16:20:53;41.95;;;25.52;;
69890;SDS011;57170;43.964;21.262;2022-12-01T16:23:26;25.90;;;16.85;;
69890;SDS011;57170;43.964;21.262;2022-12-01T16:25:52;20.52;;;14.35;;
69890;SDS011;57170;43.964;21.262;2022-12-01T16:28:27;22.23;;;15.52;;
69890;SDS011;57170;43.964;21.262;2022-12-01T16:30:55;25.75;;;17.27;;
69890;SDS011;57170;43.964;21.262;2022-12-01T16:33:23;18.67;;;14.10;;
69890;SDS011;57170;43.964;21.262;2022-12-01T16:35:49;17.80;;;13.05;;
69890;SDS011;57170;43.964;21.262;2022-12-01T16:38:19;19.52;;;11.40;;
69890;SDS011;57170;43.964;21.262;2022-12-01T16:40:50;14.68;;;10.15;;
69890;SDS011;57170;43.964;21.262;2022-12-01T16:43:21;20.60;;;14.45;;
69890;SDS011;57170;43.964;21.262;2022-12-01T16:45:48;17.85;;;12.52;;
69890;SDS011;57170;43.964;21.262;2022-12-01T16:48:17;22.48;;;14.65;;